createdAt,value
2019-03-09T00:02:28.029Z,97.11
2019-03-09T00:04:57.914Z,97.19
2019-03-09T00:07:28.045Z,97.22
2019-03-09T00:09:58.000Z,97.23
2019-03-09T00:12:27.763Z,97.27
2019-03-09T00:14:57.472Z,97.32
2019-03-09T00:17:27.431Z,97.32
2019-03-09T00:19:58.831Z,97.33
2019-03-09T00:22:28.661Z,97.35
2019-03-09T00:25:17.408Z,97.31
2019-03-09T00:28:06.116Z,96.94
2019-03-09T00:30:46.549Z,96.62
2019-03-09T00:33:16.448Z,96.56
2019-03-09T00:35:46.210Z,96.74
2019-03-09T00:38:15.999Z,96.96
2019-03-09T00:40:45.804Z,97.03
2019-03-09T00:43:15.739Z,97.12
2019-03-09T00:45:45.545Z,97.11
2019-03-09T00:48:16.570Z,97.02
2019-03-09T00:50:46.463Z,96.91
2019-03-09T00:53:16.299Z,96.97
2019-03-09T00:55:46.030Z,97.13
2019-03-09T00:58:15.868Z,97.23
2019-03-09T01:00:45.638Z,97.22
2019-03-09T01:03:15.783Z,97.20
2019-03-09T01:05:45.724Z,97.27
2019-03-09T01:08:15.490Z,97.30
2019-03-09T01:10:45.470Z,97.29
2019-03-09T01:13:15.276Z,97.33
2019-03-09T01:15:45.039Z,97.37
2019-03-09T01:18:14.873Z,97.24
2019-03-09T01:20:44.723Z,97.23
2019-03-09T01:23:14.382Z,97.11
2019-03-09T01:25:44.190Z,96.98
2019-03-09T01:28:14.380Z,96.84
2019-03-09T01:30:44.136Z,96.27
2019-03-09T01:33:13.864Z,95.69
2019-03-09T01:35:43.707Z,96.20
2019-03-09T01:38:13.704Z,97.18
2019-03-09T01:40:43.697Z,97.79
2019-03-09T01:43:13.498Z,97.68
2019-03-09T01:45:43.319Z,97.61
2019-03-09T01:48:13.186Z,97.75
2019-03-09T01:50:42.851Z,97.67
2019-03-09T01:53:12.658Z,97.92
2019-03-09T01:55:42.642Z,98.11
2019-03-09T01:58:12.387Z,98.24
2019-03-09T02:00:42.527Z,98.20
2019-03-09T02:03:12.352Z,98.07
2019-03-09T02:05:42.599Z,97.98
2019-03-09T02:08:12.281Z,97.71
2019-03-09T02:10:42.102Z,97.67
2019-03-09T02:13:11.936Z,97.55
2019-03-09T02:15:41.750Z,97.53
2019-03-09T02:18:11.518Z,97.53
2019-03-09T02:20:41.378Z,97.39
2019-03-09T02:23:11.354Z,97.37
2019-03-09T02:25:41.202Z,97.46
2019-03-09T02:28:11.098Z,97.46
2019-03-09T02:30:41.167Z,97.53
2019-03-09T02:33:11.327Z,97.54
2019-03-09T02:35:41.266Z,97.59
2019-03-09T02:38:30.002Z,97.62
2019-03-09T02:40:59.941Z,97.63
2019-03-09T02:43:29.843Z,97.65
2019-03-09T02:45:59.746Z,97.68
2019-03-09T02:48:29.688Z,97.71
2019-03-09T02:50:59.604Z,97.73
2019-03-09T02:53:29.547Z,97.69
2019-03-09T02:55:59.474Z,97.64
2019-03-09T02:58:29.343Z,97.62
2019-03-09T03:01:19.112Z,97.69
2019-03-09T03:03:48.840Z,97.59
2019-03-09T03:06:19.187Z,97.40
2019-03-09T03:08:48.921Z,97.20
2019-03-09T03:11:18.693Z,97.14
2019-03-09T03:13:48.546Z,97.18
2019-03-09T03:16:18.439Z,97.17
2019-03-09T03:18:48.229Z,97.21
2019-03-09T03:21:18.079Z,97.19
2019-03-09T03:23:47.864Z,97.21
2019-03-09T03:26:17.678Z,97.40
2019-03-09T03:28:47.710Z,97.61
2019-03-09T03:31:17.554Z,97.62
2019-03-09T03:33:47.469Z,97.53
2019-03-09T03:36:17.240Z,97.52
2019-03-09T03:38:47.091Z,97.64
2019-03-09T03:41:16.856Z,97.67
2019-03-09T03:43:46.687Z,97.69
2019-03-09T03:46:16.699Z,97.64
2019-03-09T03:48:46.645Z,97.52
2019-03-09T03:51:17.419Z,97.62
2019-03-09T03:53:47.378Z,97.66
2019-03-09T03:56:17.242Z,97.72
2019-03-09T03:58:47.377Z,97.68
2019-03-09T04:01:17.138Z,97.74
2019-03-09T04:03:46.955Z,97.74
2019-03-09T04:06:17.278Z,97.77
2019-03-09T04:08:46.974Z,97.71
2019-03-09T04:11:17.039Z,97.74
2019-03-09T04:13:46.807Z,97.72
2019-03-09T04:16:16.525Z,97.50
2019-03-09T04:18:46.496Z,97.56
2019-03-09T04:21:16.171Z,97.64
2019-03-09T04:23:46.125Z,97.74
2019-03-09T04:26:15.999Z,97.72
2019-03-09T04:28:46.003Z,97.80
2019-03-09T04:31:15.611Z,97.83
2019-03-09T04:33:45.439Z,97.91
2019-03-09T04:36:15.312Z,97.86
2019-03-09T04:38:45.091Z,97.76
2019-03-09T04:41:16.237Z,97.76
2019-03-09T04:43:46.116Z,97.75
2019-03-09T04:46:15.722Z,97.76
2019-03-09T04:48:45.527Z,97.78
2019-03-09T04:51:15.241Z,97.74
2019-03-09T04:53:45.281Z,97.61
2019-03-09T04:56:15.246Z,97.62
2019-03-09T04:58:44.900Z,97.44
2019-03-09T05:01:14.710Z,97.59
2019-03-09T05:03:44.585Z,97.61
2019-03-09T05:06:17.761Z,97.53
2019-03-09T05:09:00.404Z,97.30
2019-03-09T05:11:33.269Z,97.44
2019-03-09T05:14:14.971Z,97.49
2019-03-09T05:16:44.766Z,97.50
2019-03-09T05:19:14.665Z,97.51
2019-03-09T05:21:44.454Z,97.70
2019-03-09T05:24:14.128Z,97.84
2019-03-09T05:26:45.060Z,97.96
2019-03-09T05:29:14.854Z,97.87
2019-03-09T05:31:44.632Z,97.95
2019-03-09T05:34:14.575Z,98.09
2019-03-09T05:36:44.413Z,97.95
2019-03-09T05:39:15.476Z,97.84
2019-03-09T05:41:45.375Z,97.60
2019-03-09T05:44:15.196Z,97.76
2019-03-09T05:46:44.977Z,97.58
2019-03-09T05:49:14.784Z,97.53
2019-03-09T05:51:46.002Z,97.58
2019-03-09T05:54:15.804Z,97.46
2019-03-09T05:56:47.927Z,97.75
2019-03-09T05:59:17.650Z,98.01
2019-03-09T06:01:47.385Z,98.24
2019-03-09T06:04:17.063Z,98.25
2019-03-09T06:06:46.799Z,98.55
2019-03-09T06:09:16.532Z,98.63
2019-03-09T06:11:46.418Z,98.74
2019-03-09T06:14:16.213Z,98.62
2019-03-09T06:16:46.080Z,98.42
2019-03-09T06:19:15.844Z,98.15
2019-03-09T06:21:45.661Z,97.89
2019-03-09T06:24:15.525Z,97.78
2019-03-09T06:26:45.338Z,97.80
2019-03-09T06:29:15.120Z,97.24
2019-03-09T06:32:21.340Z,96.68
2019-03-09T06:34:51.198Z,96.04
2019-03-09T06:37:21.899Z,95.44
2019-03-09T06:39:53.795Z,95.08
2019-03-09T06:42:47.241Z,94.30
2019-03-09T06:45:18.288Z,93.04
2019-03-09T06:47:48.145Z,92.08
2019-03-09T06:50:20.732Z,91.57
2019-03-09T06:52:50.409Z,91.70
2019-03-09T06:55:20.212Z,91.22
2019-03-09T06:57:50.279Z,91.16
2019-03-09T07:00:39.925Z,92.17
2019-03-09T07:03:10.366Z,92.13
2019-03-09T07:05:40.286Z,90.53
2019-03-09T07:08:10.213Z,90.27
2019-03-09T07:10:40.031Z,88.08
2019-03-09T07:13:09.802Z,86.72
2019-03-09T07:15:45.305Z,85.70
2019-03-09T07:18:19.950Z,86.10
2019-03-09T07:20:49.876Z,85.67
2019-03-09T07:23:19.746Z,87.21
2019-03-09T07:25:49.774Z,85.80
2019-03-09T07:28:19.737Z,84.61
2019-03-09T07:30:49.493Z,83.54
2019-03-09T07:33:19.416Z,82.05
2019-03-09T07:35:49.381Z,81.93
2019-03-09T07:38:19.244Z,80.81
2019-03-09T07:40:49.151Z,81.76
2019-03-09T07:43:19.115Z,78.60
2019-03-09T07:45:48.975Z,77.92
2019-03-09T07:48:18.806Z,77.63
2019-03-09T07:50:48.579Z,77.05
2019-03-09T07:53:18.440Z,77.44
2019-03-09T07:55:48.257Z,77.93
2019-03-09T07:58:18.219Z,75.83
2019-03-09T08:00:48.222Z,75.95
2019-03-09T08:03:18.099Z,75.72
2019-03-09T08:05:48.150Z,74.57
2019-03-09T08:08:17.920Z,74.58
2019-03-09T08:10:47.747Z,74.27
2019-03-09T08:13:17.703Z,74.90
2019-03-09T08:15:47.586Z,74.70
2019-03-09T08:18:17.451Z,75.51
2019-03-09T08:20:48.462Z,76.29
2019-03-09T08:23:18.144Z,76.33
2019-03-09T08:25:47.948Z,76.35
2019-03-09T08:28:19.055Z,76.17
2019-03-09T08:30:48.717Z,76.38
2019-03-09T08:33:18.538Z,75.80
2019-03-09T08:35:48.286Z,76.27
2019-03-09T08:38:18.985Z,74.06
2019-03-09T08:40:48.941Z,72.00
2019-03-09T08:43:18.771Z,69.83
2019-03-09T08:45:48.733Z,68.24
2019-03-09T08:48:18.815Z,66.65
2019-03-09T08:50:49.954Z,65.58
2019-03-09T08:53:19.809Z,64.96
2019-03-09T08:55:49.536Z,65.54
2019-03-09T08:58:20.595Z,64.51
2019-03-09T09:00:50.417Z,64.27
2019-03-09T09:03:20.295Z,63.16
2019-03-09T09:05:51.367Z,63.08
2019-03-09T09:08:21.154Z,63.08
2019-03-09T09:10:51.190Z,63.65
2019-03-09T09:13:22.259Z,62.17
2019-03-09T09:15:52.114Z,61.94
2019-03-09T09:18:21.954Z,60.97
2019-03-09T09:20:51.701Z,61.18
2019-03-09T09:23:22.729Z,60.86
2019-03-09T09:25:52.399Z,61.70
2019-03-09T09:28:22.223Z,60.64
2019-03-09T09:30:51.984Z,60.50
2019-03-09T09:33:21.881Z,59.21
2019-03-09T09:35:51.759Z,57.87
2019-03-09T09:38:21.620Z,58.30
2019-03-09T09:40:51.492Z,57.01
2019-03-09T09:43:21.410Z,56.54
2019-03-09T09:45:51.443Z,56.29
2019-03-09T09:48:21.239Z,55.87
2019-03-09T09:50:51.056Z,55.19
2019-03-09T09:53:20.843Z,55.35
2019-03-09T09:55:50.606Z,56.97
2019-03-09T09:58:20.310Z,56.20
2019-03-09T10:00:52.419Z,54.72
2019-03-09T10:03:22.085Z,53.49
2019-03-09T10:05:52.233Z,54.04
2019-03-09T10:08:21.959Z,52.60
2019-03-09T10:10:51.837Z,52.74
2019-03-09T10:13:21.668Z,52.62
2019-03-09T10:15:51.609Z,52.13
2019-03-09T10:18:21.382Z,52.80
2019-03-09T10:20:51.305Z,51.56
2019-03-09T10:23:21.693Z,50.42
2019-03-09T10:25:51.780Z,49.27
2019-03-09T10:28:21.647Z,49.03
2019-03-09T10:30:51.371Z,48.42
2019-03-09T10:33:21.237Z,48.34
2019-03-09T10:35:51.171Z,48.40
2019-03-09T10:38:21.129Z,47.61
2019-03-09T10:40:50.945Z,45.65
2019-03-09T10:43:22.091Z,44.24
2019-03-09T10:45:51.973Z,44.06
2019-03-09T10:48:21.945Z,45.02
2019-03-09T10:50:51.834Z,45.10
2019-03-09T10:53:21.725Z,44.17
2019-03-09T10:55:51.702Z,43.52
2019-03-09T10:58:21.587Z,44.33
2019-03-09T11:00:51.497Z,42.81
2019-03-09T11:03:21.451Z,41.43
2019-03-09T11:05:51.231Z,41.54
2019-03-09T11:08:21.061Z,41.54
2019-03-09T11:10:51.022Z,41.42
2019-03-09T11:13:20.986Z,40.71
2019-03-09T11:15:50.688Z,40.25
2019-03-09T11:18:20.652Z,40.25
2019-03-09T11:20:50.333Z,39.99
2019-03-09T11:23:20.166Z,39.99
2019-03-09T11:25:50.091Z,38.75
2019-03-09T11:28:19.978Z,38.53
2019-03-09T11:30:49.878Z,38.22
2019-03-09T11:33:19.905Z,36.97
2019-03-09T11:35:49.606Z,36.79
2019-03-09T11:38:19.585Z,36.30
2019-03-09T11:40:57.286Z,35.81
2019-03-09T11:43:20.986Z,34.80
2019-03-09T11:45:50.763Z,34.80
2019-03-09T11:48:20.632Z,34.42
2019-03-09T11:50:50.539Z,34.64
2019-03-09T11:53:20.451Z,33.50
2019-03-09T11:55:50.169Z,33.04
2019-03-09T11:58:20.050Z,32.63
2019-03-09T12:00:50.657Z,32.15
2019-03-09T12:03:20.333Z,32.95
2019-03-09T12:05:50.325Z,32.29
2019-03-09T12:08:20.175Z,32.34
2019-03-09T12:10:49.998Z,32.61
2019-03-09T12:13:20.183Z,32.75
2019-03-09T12:15:49.948Z,32.74
2019-03-09T12:18:19.751Z,32.46
2019-03-09T12:20:49.676Z,31.81
2019-03-09T12:23:22.978Z,32.11
2019-03-09T12:25:53.094Z,33.05
2019-03-09T12:28:22.787Z,33.08
2019-03-09T12:30:54.039Z,30.77
2019-03-09T12:33:24.047Z,27.66
2019-03-09T12:35:54.999Z,27.66
2019-03-09T12:38:24.855Z,26.88
2019-03-09T12:40:54.698Z,27.51
2019-03-09T12:43:24.340Z,28.86
2019-03-09T12:45:54.258Z,27.10
2019-03-09T12:48:24.366Z,27.40
2019-03-09T12:50:54.286Z,28.71
2019-03-09T12:53:24.108Z,30.34
2019-03-09T12:55:55.369Z,28.01
2019-03-09T12:58:25.379Z,28.61
2019-03-09T13:00:55.168Z,28.91
2019-03-09T13:03:25.159Z,27.73
2019-03-09T13:05:54.930Z,27.18
2019-03-09T13:08:24.855Z,27.72
2019-03-09T13:10:56.062Z,27.26
2019-03-09T13:13:26.117Z,27.75
2019-03-09T13:15:55.798Z,27.75
2019-03-09T13:18:26.964Z,28.18
2019-03-09T13:20:56.804Z,28.74
2019-03-09T13:23:26.699Z,28.42
2019-03-09T13:25:57.769Z,27.30
2019-03-09T13:28:27.689Z,27.94
2019-03-09T13:30:57.550Z,27.20
2019-03-09T13:33:27.409Z,27.31
2019-03-09T13:35:57.073Z,26.83
2019-03-09T13:38:26.988Z,26.74
2019-03-09T13:40:58.123Z,26.75
2019-03-09T13:43:27.914Z,23.71
2019-03-09T13:45:57.562Z,24.79
2019-03-09T13:48:27.426Z,24.18
2019-03-09T13:50:57.288Z,25.32
2019-03-09T13:53:27.338Z,24.75
2019-03-09T13:55:57.023Z,24.52
2019-03-09T13:58:26.909Z,24.60
2019-03-09T14:00:56.549Z,25.78
2019-03-09T14:03:27.003Z,25.97
2019-03-09T14:05:58.279Z,25.66
2019-03-09T14:08:28.143Z,26.01
2019-03-09T14:10:58.016Z,26.36
2019-03-09T14:13:27.827Z,26.58
2019-03-09T14:15:57.718Z,25.71
2019-03-09T14:18:27.641Z,26.45
2019-03-09T14:20:57.600Z,25.45
2019-03-09T14:23:27.559Z,25.08
2019-03-09T14:25:57.483Z,25.02
2019-03-09T14:28:27.241Z,24.61
2019-03-09T14:30:57.014Z,24.56
2019-03-09T14:33:28.824Z,24.06
2019-03-09T14:35:58.304Z,23.89
2019-03-09T14:38:28.506Z,24.97
2019-03-09T14:40:58.314Z,24.23
2019-03-09T14:43:29.514Z,24.04
2019-03-09T14:45:59.361Z,24.72
2019-03-09T14:48:29.284Z,25.25
2019-03-09T14:50:59.228Z,25.24
2019-03-09T14:53:29.007Z,26.04
2019-03-09T14:55:58.948Z,26.26
2019-03-09T14:58:28.778Z,26.40
2019-03-09T15:00:58.547Z,26.62
2019-03-09T15:03:28.502Z,26.74
2019-03-09T15:05:58.673Z,26.97
2019-03-09T15:08:28.303Z,27.10
2019-03-09T15:10:58.249Z,27.23
2019-03-09T15:13:27.986Z,27.38
2019-03-09T15:15:57.798Z,28.28
2019-03-09T15:18:27.576Z,28.54
2019-03-09T15:20:57.552Z,28.89
2019-03-09T15:23:27.412Z,28.47
2019-03-09T15:25:57.432Z,28.19
2019-03-09T15:28:27.315Z,28.65
2019-03-09T15:30:57.166Z,29.71
2019-03-09T15:33:27.054Z,30.45
2019-03-09T15:35:57.949Z,30.47
2019-03-09T15:38:27.715Z,31.26
2019-03-09T15:40:57.647Z,31.53
2019-03-09T15:43:27.681Z,33.06
2019-03-09T15:45:57.499Z,33.06
2019-03-09T15:48:28.663Z,33.82
2019-03-09T15:50:58.505Z,33.75
2019-03-09T15:53:28.351Z,34.65
2019-03-09T15:55:58.274Z,34.95
2019-03-09T15:58:28.134Z,36.77
2019-03-09T16:00:57.794Z,35.96
2019-03-09T16:03:27.637Z,36.31
2019-03-09T16:05:57.697Z,36.54
2019-03-09T16:08:27.468Z,37.00
2019-03-09T16:10:58.795Z,36.45
2019-03-09T16:13:28.469Z,36.93
2019-03-09T16:15:58.410Z,36.66
2019-03-09T16:18:28.277Z,37.43
2019-03-09T16:20:59.635Z,38.62
2019-03-09T16:23:29.572Z,39.03
2019-03-09T16:25:59.465Z,39.79
2019-03-09T16:28:30.539Z,40.54
2019-03-09T16:31:00.317Z,41.05
2019-03-09T16:33:30.388Z,42.31
2019-03-09T16:36:00.178Z,44.09
2019-03-09T16:38:30.082Z,45.15
2019-03-09T16:40:59.895Z,46.07
2019-03-09T16:43:29.643Z,47.10
2019-03-09T16:45:59.505Z,48.09
2019-03-09T16:48:29.406Z,48.82
2019-03-09T16:50:59.378Z,49.47
2019-03-09T16:53:29.284Z,50.75
2019-03-09T16:55:59.058Z,52.07
2019-03-09T16:58:30.139Z,53.68
2019-03-09T17:01:00.054Z,54.86
2019-03-09T17:03:29.876Z,55.67
2019-03-09T17:05:59.741Z,56.41
2019-03-09T17:08:29.601Z,57.91
2019-03-09T17:10:59.626Z,58.75
2019-03-09T17:13:31.744Z,59.46
2019-03-09T17:16:01.587Z,60.06
2019-03-09T17:18:31.530Z,60.16
2019-03-09T17:21:01.473Z,60.47
2019-03-09T17:23:31.359Z,61.53
2019-03-09T17:26:01.046Z,61.84
2019-03-09T17:28:30.933Z,62.54
2019-03-09T17:31:00.640Z,63.10
2019-03-09T17:33:30.518Z,65.22
2019-03-09T17:36:00.435Z,66.67
2019-03-09T17:38:30.530Z,68.41
2019-03-09T17:41:00.492Z,68.92
2019-03-09T17:43:30.402Z,68.59
2019-03-09T17:46:00.353Z,69.07
2019-03-09T17:48:30.022Z,69.72
2019-03-09T17:50:59.841Z,69.89
2019-03-09T17:53:31.008Z,69.75
2019-03-09T17:56:00.683Z,70.46
2019-03-09T17:58:30.504Z,70.35
2019-03-09T18:01:01.524Z,69.73
2019-03-09T18:03:31.347Z,69.71
2019-03-09T18:06:01.325Z,69.38
2019-03-09T18:08:31.188Z,69.39
2019-03-09T18:11:03.409Z,70.11
2019-03-09T18:13:33.325Z,70.01
2019-03-09T18:16:04.742Z,69.69
2019-03-09T18:18:34.538Z,69.96
2019-03-09T18:21:04.361Z,70.67
2019-03-09T18:23:34.171Z,70.11
2019-03-09T18:26:04.034Z,70.91
2019-03-09T18:28:33.809Z,71.10
2019-03-09T18:31:03.710Z,72.09
2019-03-09T18:33:33.711Z,72.56
2019-03-09T18:36:03.567Z,73.34
2019-03-09T18:38:33.461Z,73.75
2019-03-09T18:41:03.414Z,73.70
2019-03-09T18:43:33.238Z,74.14
2019-03-09T18:46:02.909Z,74.84
2019-03-09T18:48:32.844Z,75.00
2019-03-09T18:51:03.999Z,75.44
2019-03-09T18:53:33.781Z,75.85
2019-03-09T18:56:03.702Z,76.46
2019-03-09T18:58:33.798Z,76.69
2019-03-09T19:01:03.977Z,76.60
2019-03-09T19:03:33.984Z,76.14
2019-03-09T19:06:03.824Z,75.92
2019-03-09T19:08:33.711Z,76.29
2019-03-09T19:11:03.784Z,76.23
2019-03-09T19:13:33.551Z,76.11
2019-03-09T19:16:03.474Z,76.43
2019-03-09T19:18:33.779Z,75.65
2019-03-09T19:21:03.693Z,76.67
2019-03-09T19:23:33.575Z,78.13
2019-03-09T19:26:03.371Z,78.60
2019-03-09T19:28:33.254Z,77.56
2019-03-09T19:31:03.174Z,77.26
2019-03-09T19:33:33.135Z,77.34
2019-03-09T19:36:03.494Z,78.25
2019-03-09T19:38:33.325Z,78.50
2019-03-09T19:41:03.286Z,78.10
2019-03-09T19:43:33.302Z,77.98
2019-03-09T19:46:03.081Z,76.83
2019-03-09T19:48:34.338Z,74.83
2019-03-09T19:51:04.216Z,75.67
2019-03-09T19:53:34.135Z,77.09
2019-03-09T19:56:04.191Z,76.68
2019-03-09T19:58:34.276Z,75.64
2019-03-09T20:01:04.092Z,75.35
2019-03-09T20:03:33.932Z,74.84
2019-03-09T20:06:03.989Z,75.36
2019-03-09T20:08:33.769Z,76.04
2019-03-09T20:11:03.630Z,76.00
2019-03-09T20:13:34.739Z,76.16
2019-03-09T20:16:04.617Z,76.47
2019-03-09T20:18:34.480Z,78.12
2019-03-09T20:21:04.368Z,79.04
2019-03-09T20:23:34.266Z,79.68
2019-03-09T20:26:04.223Z,78.26
2019-03-09T20:28:34.115Z,78.90
2019-03-09T20:31:04.031Z,78.92
2019-03-09T20:33:33.777Z,78.92
2019-03-09T20:36:03.658Z,78.65
2019-03-09T20:38:33.533Z,78.48
2019-03-09T20:41:03.494Z,79.10
2019-03-09T20:43:33.417Z,80.20
2019-03-09T20:46:03.278Z,80.37
2019-03-09T20:48:33.249Z,81.14
2019-03-09T20:51:03.265Z,82.68
2019-03-09T20:53:32.796Z,82.81
2019-03-09T20:56:02.489Z,84.25
2019-03-09T20:58:32.334Z,83.95
2019-03-09T21:01:02.232Z,83.82
2019-03-09T21:03:32.156Z,84.02
2019-03-09T21:06:01.964Z,83.99
2019-03-09T21:08:31.873Z,84.39
2019-03-09T21:11:04.332Z,84.68
2019-03-09T21:13:33.352Z,85.41
2019-03-09T21:16:03.419Z,85.41
2019-03-09T21:18:33.236Z,85.48
2019-03-09T21:21:03.140Z,86.73
2019-03-09T21:23:35.394Z,90.81
2019-03-09T21:26:04.452Z,92.00
2019-03-09T21:28:35.522Z,92.10
2019-03-09T21:31:05.316Z,92.69
2019-03-09T21:33:35.134Z,92.55
2019-03-09T21:36:05.226Z,92.43
2019-03-09T21:38:34.874Z,92.21
2019-03-09T21:41:04.791Z,92.07
2019-03-09T21:43:34.595Z,92.49
2019-03-09T21:46:04.549Z,93.23
2019-03-09T21:48:35.766Z,93.23
2019-03-09T21:51:05.564Z,93.45
2019-03-09T21:53:35.431Z,93.66
2019-03-09T21:56:05.086Z,93.43
2019-03-09T21:58:34.915Z,93.00
2019-03-09T22:01:05.106Z,92.76
2019-03-09T22:03:35.056Z,93.11
2019-03-09T22:06:06.281Z,93.52
2019-03-09T22:08:36.380Z,94.13
2019-03-09T22:11:06.233Z,94.28
2019-03-09T22:13:36.062Z,94.51
2019-03-09T22:16:05.915Z,94.84
2019-03-09T22:18:35.589Z,94.78
2019-03-09T22:21:05.692Z,95.05
2019-03-09T22:23:43.693Z,95.09
2019-03-09T22:26:06.968Z,95.17
2019-03-09T22:28:36.809Z,95.16
2019-03-09T22:31:06.588Z,95.07
2019-03-09T22:33:36.298Z,95.09
2019-03-09T22:36:06.153Z,95.13
2019-03-09T22:38:36.028Z,95.25
2019-03-09T22:41:07.026Z,95.22
2019-03-09T22:43:36.905Z,95.06
2019-03-09T22:46:06.825Z,94.83
2019-03-09T22:48:36.888Z,94.86
2019-03-09T22:51:06.628Z,94.87
2019-03-09T22:53:36.464Z,94.84
2019-03-09T22:56:06.323Z,94.96
2019-03-09T22:58:36.604Z,94.91
2019-03-09T23:01:07.007Z,94.97
2019-03-09T23:03:36.877Z,94.96
2019-03-09T23:06:06.825Z,94.81
2019-03-09T23:08:36.687Z,94.88
2019-03-09T23:11:06.749Z,95.04
2019-03-09T23:13:36.454Z,94.95
2019-03-09T23:16:06.208Z,94.78
2019-03-09T23:18:36.128Z,94.79
2019-03-09T23:21:05.987Z,95.05
2019-03-09T23:23:35.650Z,95.08
2019-03-09T23:26:05.367Z,95.04
2019-03-09T23:28:48.630Z,95.31
2019-03-09T23:31:18.618Z,95.34
2019-03-09T23:33:48.532Z,95.43
2019-03-09T23:36:18.407Z,95.71
2019-03-09T23:38:48.266Z,95.88
2019-03-09T23:41:18.078Z,96.02
2019-03-09T23:43:47.862Z,96.17
2019-03-09T23:46:17.718Z,96.21
2019-03-09T23:48:47.557Z,96.20
2019-03-09T23:51:17.431Z,96.21
2019-03-09T23:53:47.243Z,96.29
2019-03-09T23:56:17.102Z,96.30
2019-03-09T23:58:47.013Z,96.35
